Time;durP1;ratioP1;P1;durP2;ratioP2;P2;SDS_P1;SDS_P2;PMS_P1;PMS_P2;Temp;Humidity;BMP_temperature;BMP_pressure;BME280_temperature;BME280_humidity;BME280_pressure;Samples;Min_cycle;Max_cycle;Signal;HPM_P1;HPM_P2
2022/10/27 00:04:39;;;;;;;40.55;24.95;;;;;;;;;;10062869;28;20049;-67
2022/10/27 00:09:34;;;;;;;34.45;19.10;;;;;;;;;;10065814;28;20508;-67
2022/10/27 00:14:28;;;;;;;30.08;18.65;;;;;;;;;;10050637;28;20060;-68
2022/10/27 00:19:24;;;;;;;34.88;20.20;;;;;;;;;;10031939;28;20080;-68
2022/10/27 00:24:18;;;;;;;39.42;20.17;;;;;;;;;;10062734;28;20424;-68
2022/10/27 00:29:12;;;;;;;31.40;18.42;;;;;;;;;;10062111;28;20112;-68
2022/10/27 00:34:05;;;;;;;45.30;21.10;;;;;;;;;;10064146;28;20100;-68
2022/10/27 00:38:58;;;;;;;39.22;19.10;;;;;;;;;;10063771;28;20061;-68
2022/10/27 00:43:52;;;;;;;33.42;19.30;;;;;;;;;;10057517;28;20493;-67
2022/10/27 00:48:46;;;;;;;29.63;18.75;;;;;;;;;;10061613;28;20050;-67
2022/10/27 00:53:40;;;;;;;38.38;20.98;;;;;;;;;;10063774;28;20050;-68
2022/10/27 00:58:33;;;;;;;43.97;22.73;;;;;;;;;;10059784;28;20136;-68
2022/10/27 01:03:26;;;;;;;31.95;20.88;;;;;;;;;;10057773;28;20050;-68
2022/10/27 01:08:22;;;;;;;36.25;22.48;;;;;;;;;;10058029;28;20141;-69
2022/10/27 01:13:16;;;;;;;38.15;19.98;;;;;;;;;;10030506;28;20540;-67
2022/10/27 01:18:24;;;;;;;33.05;20.35;;;;;;;;;;10049191;28;20053;-69
2022/10/27 01:23:30;;;;;;;36.10;21.60;;;;;;;;;;10058573;28;20416;-69
2022/10/27 01:28:42;;;;;;;33.55;19.67;;;;;;;;;;10069670;28;20149;-69
2022/10/27 01:33:54;;;;;;;35.63;19.45;;;;;;;;;;10058624;28;20054;-69
2022/10/27 01:39:18;;;;;;;29.38;19.08;;;;;;;;;;10069045;28;20064;-68
2022/10/27 01:44:33;;;;;;;27.73;18.75;;;;;;;;;;10071132;28;20056;-69
2022/10/27 01:49:54;;;;;;;26.48;16.75;;;;;;;;;;10063757;28;20508;-69
2022/10/27 01:54:47;;;;;;;36.28;18.15;;;;;;;;;;10069231;28;20049;-69
2022/10/27 01:59:59;;;;;;;32.10;17.92;;;;;;;;;;10070374;28;20053;-69
2022/10/27 02:04:55;;;;;;;32.55;17.08;;;;;;;;;;10064132;28;20053;-69
2022/10/27 02:10:18;;;;;;;31.33;19.00;;;;;;;;;;10068302;28;20132;-69
2022/10/27 02:15:23;;;;;;;32.65;19.05;;;;;;;;;;10051834;28;20051;-69
2022/10/27 02:20:23;;;;;;;25.13;20.35;;;;;;;;;;10065337;28;20057;-69
2022/10/27 02:25:16;;;;;;;;;;;;;;;;;;10063644;28;20056;-69
2022/10/27 02:30:11;;;;;;;29.50;17.55;;;;;;;;;;10065639;28;19952;-67
2022/10/27 02:35:05;;;;;;;36.03;21.05;;;;;;;;;;10068487;28;20088;-68
2022/10/27 02:39:58;;;;;;;38.28;17.95;;;;;;;;;;10069011;28;20057;-68
2022/10/27 02:44:52;;;;;;;42.35;17.00;;;;;;;;;;10068843;28;20061;-68
2022/10/27 02:49:47;;;;;;;28.08;17.60;;;;;;;;;;10062120;28;20096;-68
2022/10/27 02:54:41;;;;;;;30.20;16.67;;;;;;;;;;10069232;28;20104;-68
2022/10/27 02:59:35;;;;;;;29.98;17.50;;;;;;;;;;10062995;28;20136;-68
2022/10/27 03:04:28;;;;;;;32.25;18.90;;;;;;;;;;10063270;28;20045;-68
2022/10/27 03:09:22;;;;;;;30.58;18.77;;;;;;;;;;10068378;28;20508;-67
2022/10/27 03:14:17;;;;;;;41.97;20.38;;;;;;;;;;10054828;28;20133;-68
2022/10/27 03:19:10;;;;;;;41.90;21.48;;;;;;;;;;10051271;28;20141;-69
2022/10/27 03:24:06;;;;;;;44.47;18.60;;;;;;;;;;10037052;28;20085;-68
2022/10/27 03:28:58;;;;;;;33.45;19.42;;;;;;;;;;10055816;28;20501;-68
2022/10/27 03:33:53;;;;;;;32.53;20.63;;;;;;;;;;10057297;28;20069;-68
2022/10/27 03:38:49;;;;;;;29.38;19.08;;;;;;;;;;10063160;28;20137;-69
2022/10/27 03:43:45;;;;;;;31.20;20.60;;;;;;;;;;10060889;28;20045;-69
2022/10/27 03:48:40;;;;;;;37.60;19.52;;;;;;;;;;10054307;28;20053;-69
2022/10/27 03:53:34;;;;;;;32.45;21.15;;;;;;;;;;10066177;28;20519;-69
2022/10/27 03:58:28;;;;;;;31.35;20.15;;;;;;;;;;10066278;28;20107;-68
2022/10/27 04:03:22;;;;;;;32.78;21.58;;;;;;;;;;10064453;28;20515;-68
2022/10/27 04:08:16;;;;;;;29.27;20.10;;;;;;;;;;10055697;28;20061;-68
2022/10/27 04:13:09;;;;;;;35.35;19.80;;;;;;;;;;10050783;28;20065;-69
2022/10/27 04:18:04;;;;;;;29.42;20.67;;;;;;;;;;10050297;28;20053;-68
2022/10/27 04:23:00;;;;;;;33.67;21.33;;;;;;;;;;10060831;28;20054;-68
2022/10/27 04:28:00;;;;;;;32.47;21.23;;;;;;;;;;10057428;28;20050;-68
2022/10/27 04:32:53;;;;;;;37.08;22.88;;;;;;;;;;10057752;28;20060;-70
2022/10/27 04:37:46;;;;;;;37.38;21.92;;;;;;;;;;10061167;28;20072;-71
2022/10/27 04:42:47;;;;;;;43.78;27.02;;;;;;;;;;10030194;28;20468;-68
2022/10/27 04:47:39;;;;;;;37.63;24.02;;;;;;;;;;10053954;28;20085;-70
2022/10/27 04:52:33;;;;;;;44.58;28.40;;;;;;;;;;10057027;28;20508;-71
2022/10/27 04:57:29;;;;;;;51.95;28.67;;;;;;;;;;10055955;28;20133;-71
2022/10/27 05:02:22;;;;;;;44.15;26.67;;;;;;;;;;10060114;28;20064;-69
2022/10/27 05:07:15;;;;;;;55.83;31.00;;;;;;;;;;10037582;28;20560;-67
2022/10/27 05:12:09;;;;;;;46.08;29.67;;;;;;;;;;10023234;28;20574;-69
2022/10/27 05:17:03;;;;;;;49.28;29.25;;;;;;;;;;10023824;28;20427;-67
2022/10/27 05:21:57;;;;;;;51.55;29.00;;;;;;;;;;10027271;28;20069;-70
2022/10/27 05:26:50;;;;;;;48.97;28.10;;;;;;;;;;10036675;28;20061;-70
2022/10/27 05:31:45;;;;;;;51.95;27.60;;;;;;;;;;10035897;28;20061;-71
2022/10/27 05:36:39;;;;;;;47.85;27.30;;;;;;;;;;10045862;28;20058;-71
2022/10/27 05:41:35;;;;;;;37.20;25.77;;;;;;;;;;10033696;28;20045;-71
2022/10/27 05:46:28;;;;;;;35.80;24.35;;;;;;;;;;10033876;28;20060;-72
2022/10/27 05:51:23;;;;;;;51.72;25.13;;;;;;;;;;10031574;28;20092;-70
2022/10/27 05:56:15;;;;;;;42.92;24.00;;;;;;;;;;10025376;28;20134;-70
2022/10/27 06:01:09;;;;;;;46.25;23.30;;;;;;;;;;10021279;28;20050;-70
2022/10/27 06:06:04;;;;;;;44.47;24.15;;;;;;;;;;10030931;28;20501;-70
2022/10/27 06:10:57;;;;;;;35.20;23.83;;;;;;;;;;10041875;28;20108;-68
2022/10/27 06:15:50;;;;;;;37.85;23.65;;;;;;;;;;10046213;28;20104;-71
2022/10/27 06:20:44;;;;;;;43.78;22.92;;;;;;;;;;10042457;28;20497;-70
2022/10/27 06:25:38;;;;;;;39.42;21.58;;;;;;;;;;10055976;28;20137;-67
2022/10/27 06:30:35;;;;;;;44.10;24.50;;;;;;;;;;10065362;28;20053;-68
2022/10/27 06:35:28;;;;;;;40.65;22.63;;;;;;;;;;10062279;28;20068;-69
2022/10/27 06:40:23;;;;;;;41.03;23.75;;;;;;;;;;10061698;28;20064;-68
2022/10/27 06:45:17;;;;;;;55.55;22.73;;;;;;;;;;10051029;28;20145;-69
2022/10/27 06:50:11;;;;;;;46.15;24.58;;;;;;;;;;10048637;28;20053;-68
2022/10/27 06:55:08;;;;;;;52.58;23.30;;;;;;;;;;10057837;28;20107;-69
2022/10/27 07:00:02;;;;;;;41.42;24.23;;;;;;;;;;10062782;28;20132;-70
2022/10/27 07:04:55;;;;;;;42.38;25.13;;;;;;;;;;10053875;28;20073;-69
2022/10/27 07:09:48;;;;;;;36.10;23.10;;;;;;;;;;10039192;28;20057;-69
2022/10/27 07:14:43;;;;;;;36.88;23.73;;;;;;;;;;10051099;28;20096;-67
2022/10/27 07:19:37;;;;;;;41.72;23.17;;;;;;;;;;10035791;28;20417;-68
2022/10/27 07:24:31;;;;;;;43.72;23.15;;;;;;;;;;10040890;28;20057;-68
2022/10/27 07:29:24;;;;;;;38.42;21.15;;;;;;;;;;10043511;28;20412;-67
2022/10/27 07:34:18;;;;;;;42.17;24.30;;;;;;;;;;10058288;28;20381;-67
2022/10/27 07:39:12;;;;;;;42.67;23.15;;;;;;;;;;10053576;28;20512;-67
2022/10/27 07:44:06;;;;;;;45.03;23.05;;;;;;;;;;10035488;28;20068;-67
2022/10/27 07:49:00;;;;;;;54.38;24.75;;;;;;;;;;10040634;28;20050;-67
2022/10/27 07:53:54;;;;;;;38.28;24.48;;;;;;;;;;10038357;28;20053;-67
2022/10/27 07:58:50;;;;;;;46.33;25.33;;;;;;;;;;10050367;28;20053;-68
2022/10/27 08:03:45;;;;;;;44.00;23.40;;;;;;;;;;10051012;28;20068;-67
2022/10/27 08:08:43;;;;;;;43.80;25.52;;;;;;;;;;10052246;28;20132;-68
2022/10/27 08:13:37;;;;;;;37.33;22.95;;;;;;;;;;10053043;28;20103;-67
2022/10/27 08:18:30;;;;;;;47.80;26.52;;;;;;;;;;10044616;28;20448;-67
2022/10/27 08:23:25;;;;;;;39.53;25.70;;;;;;;;;;10046248;28;20412;-67
2022/10/27 08:28:18;;;;;;;42.08;23.27;;;;;;;;;;10041831;28;20080;-67
2022/10/27 08:33:12;;;;;;;43.47;25.02;;;;;;;;;;10054770;28;20846;-67
2022/10/27 08:38:10;;;;;;;43.25;26.30;;;;;;;;;;10044458;28;20061;-67
2022/10/27 08:43:23;;;;;;;42.38;25.38;;;;;;;;;;10045280;28;20056;-67
2022/10/27 08:48:22;;;;;;;45.38;24.55;;;;;;;;;;10036253;28;20053;-67
2022/10/27 08:53:19;;;;;;;39.40;23.05;;;;;;;;;;10048183;28;20060;-67
2022/10/27 08:58:18;;;;;;;39.25;22.27;;;;;;;;;;10055152;28;20095;-66
2022/10/27 09:03:26;;;;;;;31.73;20.98;;;;;;;;;;10054415;28;20092;-67
2022/10/27 09:08:32;;;;;;;32.88;21.20;;;;;;;;;;10057074;28;20077;-67
2022/10/27 09:13:38;;;;;;;39.50;20.50;;;;;;;;;;10057819;28;20140;-67
2022/10/27 09:18:39;;;;;;;34.03;18.10;;;;;;;;;;10030602;28;20512;-67
2022/10/27 09:23:44;;;;;;;31.02;14.30;;;;;;;;;;10039059;28;20057;-67
2022/10/27 09:28:48;;;;;;;37.50;15.20;;;;;;;;;;10027870;28;20069;-67
2022/10/27 09:33:48;;;;;;;29.48;14.95;;;;;;;;;;10077331;28;20092;-71
2022/10/27 09:38:42;;;;;;;25.85;15.98;;;;;;;;;;10051630;28;20057;-72
2022/10/27 09:43:36;;;;;;;31.67;15.18;;;;;;;;;;10061176;28;20041;-72
2022/10/27 09:48:31;;;;;;;28.08;15.48;;;;;;;;;;10054031;28;20136;-73
2022/10/27 09:53:47;;;;;;;31.83;15.73;;;;;;;;;;10064098;28;20053;-72
2022/10/27 09:58:59;;;;;;;27.70;16.50;;;;;;;;;;10052004;28;20061;-74
2022/10/27 10:04:03;;;;;;;31.30;15.57;;;;;;;;;;10051355;28;20041;-71
2022/10/27 10:09:34;;;;;;;34.53;16.48;;;;;;;;;;10033420;28;20056;-73
2022/10/27 10:14:34;;;;;;;28.35;15.90;;;;;;;;;;10035998;28;20504;-71
2022/10/27 10:19:28;;;;;;;31.67;19.23;;;;;;;;;;10027738;28;20402;-71
2022/10/27 10:24:28;;;;;;;34.25;17.90;;;;;;;;;;10009302;28;20535;-72
2022/10/27 10:29:29;;;;;;;36.30;18.00;;;;;;;;;;10026592;28;20057;-71
2022/10/27 10:34:29;;;;;;;34.58;18.98;;;;;;;;;;10035538;28;20054;-71
2022/10/27 10:39:27;;;;;;;45.33;21.35;;;;;;;;;;10062635;28;20042;-72
2022/10/27 10:44:22;;;;;;;35.45;19.77;;;;;;;;;;10030876;28;20054;-74
2022/10/27 10:49:24;;;;;;;42.83;20.95;;;;;;;;;;10036458;28;20057;-74
2022/10/27 10:54:31;;;;;;;34.55;20.65;;;;;;;;;;10049721;28;20468;-72
2022/10/27 10:59:30;;;;;;;37.95;20.45;;;;;;;;;;10034575;28;20070;-71
2022/10/27 11:04:29;;;;;;;33.60;21.70;;;;;;;;;;10029174;28;20497;-71
2022/10/27 11:09:27;;;;;;;31.00;19.90;;;;;;;;;;10040293;28;20049;-72
2022/10/27 11:14:23;;;;;;;39.85;21.40;;;;;;;;;;10035479;28;20050;-71
2022/10/27 11:19:19;;;;;;;25.58;19.20;;;;;;;;;;10022251;28;20505;-71
2022/10/27 11:24:16;;;;;;;40.97;20.48;;;;;;;;;;10033341;28;20080;-71
2022/10/27 11:29:34;;;;;;;41.60;22.75;;;;;;;;;;10027522;28;20119;-76
2022/10/27 11:34:47;;;;;;;39.70;20.02;;;;;;;;;;10009349;28;20448;-73
2022/10/27 11:39:55;;;;;;;45.97;22.08;;;;;;;;;;10033087;28;20092;-75
2022/10/27 11:45:10;;;;;;;35.75;21.25;;;;;;;;;;10038531;28;20145;-73
2022/10/27 11:50:49;;;;;;;31.80;18.27;;;;;;;;;;10022392;28;20062;-74
2022/10/27 11:56:18;;;;;;;34.20;17.90;;;;;;;;;;10033938;28;20505;-75
2022/10/27 12:01:36;;;;;;;31.23;19.20;;;;;;;;;;10024555;28;20072;-75
2022/10/27 12:06:41;;;;;;;33.70;19.33;;;;;;;;;;10037394;28;20053;-73
2022/10/27 12:12:01;;;;;;;39.47;19.63;;;;;;;;;;10035972;28;20108;-73
2022/10/27 12:17:02;;;;;;;33.92;20.02;;;;;;;;;;10052781;28;20424;-74
2022/10/27 12:22:41;;;;;;;40.25;21.85;;;;;;;;;;10024887;28;20156;-74
2022/10/27 12:27:40;;;;;;;37.70;20.33;;;;;;;;;;10040453;28;20105;-73
2022/10/27 12:33:11;;;;;;;40.75;23.08;;;;;;;;;;10037452;28;20085;-73
2022/10/27 12:38:27;;;;;;;34.92;17.95;;;;;;;;;;10038704;28;20488;-74
2022/10/27 12:43:55;;;;;;;33.67;21.58;;;;;;;;;;10034534;28;20136;-74
2022/10/27 12:49:24;;;;;;;35.30;22.60;;;;;;;;;;10036305;28;20060;-74
2022/10/27 12:54:51;;;;;;;41.40;23.67;;;;;;;;;;10034541;28;20200;-73
2022/10/27 13:00:27;;;;;;;34.33;22.45;;;;;;;;;;10045876;28;20497;-79
2022/10/27 13:05:35;;;;;;;39.20;23.15;;;;;;;;;;10049129;28;20088;-74
2022/10/27 13:10:46;;;;;;;37.63;23.52;;;;;;;;;;10038273;28;20149;-75
2022/10/27 13:16:07;;;;;;;34.53;21.83;;;;;;;;;;10019861;28;20061;-68
2022/10/27 13:21:19;;;;;;;33.88;20.75;;;;;;;;;;10044943;28;20049;-67
2022/10/27 13:26:35;;;;;;;35.22;21.88;;;;;;;;;;10046508;28;20054;-67
2022/10/27 13:31:44;;;;;;;47.30;24.02;;;;;;;;;;10050181;28;20060;-67
2022/10/27 13:36:39;;;;;;;;;;;;;;;;;;10052137;28;20398;-67
2022/10/27 13:42:05;;;;;;;34.42;22.25;;;;;;;;;;10058832;28;19944;-67
2022/10/27 13:47:03;;;;;;;43.75;22.38;;;;;;;;;;10055956;28;20053;-67
2022/10/27 13:52:18;;;;;;;43.83;22.52;;;;;;;;;;10057050;28;20050;-68
2022/10/27 13:57:30;;;;;;;44.25;21.60;;;;;;;;;;10058888;28;20057;-65
2022/10/27 14:02:31;;;;;;;37.67;22.05;;;;;;;;;;10056652;28;20049;-66
2022/10/27 14:07:26;;;;;;;35.83;20.58;;;;;;;;;;10061824;28;20053;-66
2022/10/27 14:12:34;;;;;;;44.50;24.00;;;;;;;;;;10043868;28;20137;-67
2022/10/27 14:17:30;;;;;;;43.80;24.05;;;;;;;;;;10029358;28;20421;-68
2022/10/27 14:22:36;;;;;;;41.92;24.15;;;;;;;;;;10048507;28;20144;-66
2022/10/27 14:27:30;;;;;;;39.03;22.67;;;;;;;;;;10039187;28;20061;-66
2022/10/27 14:32:26;;;;;;;40.28;22.35;;;;;;;;;;10049385;28;20053;-67
2022/10/27 14:37:41;;;;;;;33.17;20.27;;;;;;;;;;10061194;28;20428;-66
2022/10/27 14:42:38;;;;;;;34.58;19.25;;;;;;;;;;10063989;28;20053;-66
2022/10/27 14:47:34;;;;;;;44.78;22.27;;;;;;;;;;10046395;28;20066;-66
2022/10/27 14:52:34;;;;;;;37.80;24.38;;;;;;;;;;10040949;28;20060;-66
2022/10/27 14:57:30;;;;;;;43.72;22.85;;;;;;;;;;10046874;28;20132;-66
2022/10/27 15:02:25;;;;;;;56.97;25.45;;;;;;;;;;10038211;28;20049;-67
2022/10/27 15:07:19;;;;;;;39.53;22.92;;;;;;;;;;10056020;28;20053;-67
2022/10/27 15:12:24;;;;;;;41.13;22.20;;;;;;;;;;10062036;28;20062;-66
2022/10/27 15:17:41;;;;;;;40.00;24.58;;;;;;;;;;10041811;28;20509;-67
2022/10/27 15:22:38;;;;;;;51.92;24.05;;;;;;;;;;10039930;28;20096;-67
2022/10/27 15:27:33;;;;;;;45.65;27.15;;;;;;;;;;10035728;28;20493;-69
2022/10/27 15:32:40;;;;;;;40.45;24.50;;;;;;;;;;10060708;28;20084;-66
2022/10/27 15:37:52;;;;;;;38.75;25.95;;;;;;;;;;10054810;28;20057;-66
2022/10/27 15:42:47;;;;;;;48.25;25.42;;;;;;;;;;10042948;28;20390;-67
2022/10/27 15:47:47;;;;;;;42.10;24.35;;;;;;;;;;10035161;28;20132;-67
2022/10/27 15:52:44;;;;;;;55.30;26.58;;;;;;;;;;10049443;28;20042;-66
2022/10/27 15:57:42;;;;;;;41.95;24.67;;;;;;;;;;10028686;28;20096;-66
2022/10/27 16:02:47;;;;;;;48.80;26.55;;;;;;;;;;10050578;28;20451;-67
2022/10/27 16:07:46;;;;;;;45.67;25.13;;;;;;;;;;10053761;28;20053;-66
2022/10/27 16:12:44;;;;;;;47.38;24.25;;;;;;;;;;10052958;28;20053;-66
2022/10/27 16:17:43;;;;;;;52.40;25.17;;;;;;;;;;10062116;28;20144;-66
2022/10/27 16:22:41;;;;;;;47.15;25.98;;;;;;;;;;10045646;28;20062;-66
2022/10/27 16:27:38;;;;;;;49.55;24.52;;;;;;;;;;10023265;28;20142;-66
2022/10/27 16:32:36;;;;;;;40.03;22.60;;;;;;;;;;10025886;28;20527;-66
2022/10/27 16:37:35;;;;;;;53.17;25.02;;;;;;;;;;10025640;28;20096;-66
2022/10/27 16:42:35;;;;;;;45.22;24.48;;;;;;;;;;10025817;28;20053;-67
2022/10/27 16:47:31;;;;;;;57.83;25.85;;;;;;;;;;10013438;28;20049;-67
2022/10/27 16:52:29;;;;;;;43.03;25.45;;;;;;;;;;10017691;28;20096;-67
2022/10/27 16:57:27;;;;;;;60.03;28.42;;;;;;;;;;10017264;28;20089;-65
2022/10/27 17:02:25;;;;;;;46.90;24.23;;;;;;;;;;10017859;28;20058;-66
2022/10/27 17:07:22;;;;;;;44.40;24.45;;;;;;;;;;10024265;28;20053;-66
2022/10/27 17:12:18;;;;;;;47.00;25.65;;;;;;;;;;10036374;28;20053;-66
2022/10/27 17:17:12;;;;;;;39.80;24.63;;;;;;;;;;10025091;28;20049;-65
2022/10/27 17:22:10;;;;;;;40.70;23.65;;;;;;;;;;10023823;28;20060;-65
2022/10/27 17:27:05;;;;;;;45.00;24.77;;;;;;;;;;10018359;28;20456;-66
2022/10/27 17:32:05;;;;;;;62.58;25.95;;;;;;;;;;10018455;28;20485;-67
2022/10/27 17:37:05;;;;;;;53.92;25.98;;;;;;;;;;10047171;28;20080;-66
2022/10/27 17:42:02;;;;;;;;;;;;;;;;;;10056716;28;20060;-66
2022/10/27 17:46:57;;;;;;;55.30;25.63;;;;;;;;;;10041935;28;20021;-73
2022/10/27 17:51:52;;;;;;;44.97;26.02;;;;;;;;;;10046132;28;20054;-73
2022/10/27 17:56:45;;;;;;;55.97;27.10;;;;;;;;;;10061665;28;20072;-73
2022/10/27 18:01:38;;;;;;;50.83;26.27;;;;;;;;;;10041215;28;20088;-73
2022/10/27 18:06:32;;;;;;;56.88;25.70;;;;;;;;;;10029086;28;20095;-75
2022/10/27 18:11:32;;;;;;;41.13;28.98;;;;;;;;;;10030303;28;20084;-74
2022/10/27 18:16:27;;;;;;;42.08;25.58;;;;;;;;;;10025015;28;20042;-76
2022/10/27 18:21:19;;;;;;;46.65;27.10;;;;;;;;;;10015126;28;20069;-76
2022/10/27 18:26:13;;;;;;;50.20;25.38;;;;;;;;;;10024586;28;20482;-76
2022/10/27 18:31:08;;;;;;;45.60;25.13;;;;;;;;;;10032073;28;20512;-73
2022/10/27 18:36:07;;;;;;;46.30;25.35;;;;;;;;;;10029639;28;20069;-73
2022/10/27 18:41:03;;;;;;;47.95;26.92;;;;;;;;;;10028727;28;20077;-74
2022/10/27 18:46:04;;;;;;;46.35;25.15;;;;;;;;;;10029540;28;20054;-73
2022/10/27 18:51:04;;;;;;;43.17;24.75;;;;;;;;;;10028408;28;20105;-73
2022/10/27 18:56:03;;;;;;;51.83;25.08;;;;;;;;;;10025769;28;20054;-73
2022/10/27 19:01:02;;;;;;;52.47;25.20;;;;;;;;;;10020358;28;20169;-73
2022/10/27 19:06:01;;;;;;;38.83;26.50;;;;;;;;;;10020181;28;20139;-74
2022/10/27 19:11:03;;;;;;;50.30;26.92;;;;;;;;;;10017550;28;20104;-71
2022/10/27 19:16:05;;;;;;;46.05;25.08;;;;;;;;;;10018043;28;20060;-71
2022/10/27 19:21:00;;;;;;;49.45;25.67;;;;;;;;;;10018459;28;20408;-71
2022/10/27 19:26:00;;;;;;;57.17;27.10;;;;;;;;;;10017521;28;20100;-72
2022/10/27 19:30:55;;;;;;;47.03;25.75;;;;;;;;;;10008246;28;20469;-71
2022/10/27 19:35:48;;;;;;;41.72;25.98;;;;;;;;;;9999896;28;20046;-71
2022/10/27 19:40:42;;;;;;;46.50;25.92;;;;;;;;;;10001007;28;20409;-72
2022/10/27 19:45:36;;;;;;;48.22;27.55;;;;;;;;;;10005629;28;20045;-76
2022/10/27 19:50:30;;;;;;;43.78;26.20;;;;;;;;;;10016610;28;20046;-75
2022/10/27 19:55:23;;;;;;;51.40;28.15;;;;;;;;;;10022423;28;20045;-74
2022/10/27 20:00:20;;;;;;;50.03;30.38;;;;;;;;;;10021992;28;20453;-73
2022/10/27 20:05:16;;;;;;;49.85;28.20;;;;;;;;;;10022536;28;20437;-74
2022/10/27 20:10:10;;;;;;;58.08;28.25;;;;;;;;;;10020954;28;20084;-71
2022/10/27 20:15:06;;;;;;;54.55;30.48;;;;;;;;;;10034646;28;20471;-70
2022/10/27 20:20:00;;;;;;;51.28;29.60;;;;;;;;;;10037477;28;20084;-71
2022/10/27 20:24:54;;;;;;;42.85;28.63;;;;;;;;;;10026628;28;20077;-72
2022/10/27 20:29:48;;;;;;;50.50;29.17;;;;;;;;;;10044791;28;20104;-73
2022/10/27 20:34:41;;;;;;;42.38;28.17;;;;;;;;;;10053348;28;20084;-73
2022/10/27 20:39:35;;;;;;;48.67;27.75;;;;;;;;;;10047537;28;20061;-72
2022/10/27 20:44:30;;;;;;;40.97;25.83;;;;;;;;;;10033452;28;20489;-73
2022/10/27 20:49:24;;;;;;;53.40;28.77;;;;;;;;;;10025471;28;20080;-75
2022/10/27 20:54:19;;;;;;;43.15;26.80;;;;;;;;;;10026902;28;20050;-73
2022/10/27 20:59:13;;;;;;;56.53;27.80;;;;;;;;;;10024683;28;20060;-72
2022/10/27 21:04:08;;;;;;;46.88;26.83;;;;;;;;;;10018859;28;20057;-73
2022/10/27 21:09:05;;;;;;;52.90;30.95;;;;;;;;;;10020466;28;20081;-73
2022/10/27 21:14:00;;;;;;;46.72;30.55;;;;;;;;;;10027482;28;20062;-73
2022/10/27 21:18:55;;;;;;;50.83;32.13;;;;;;;;;;10033776;28;20084;-73
2022/10/27 21:23:49;;;;;;;48.10;29.38;;;;;;;;;;10024672;28;20065;-75
2022/10/27 21:28:43;;;;;;;58.15;31.27;;;;;;;;;;10028983;28;20132;-73
2022/10/27 21:33:36;;;;;;;49.78;30.90;;;;;;;;;;10030613;28;20140;-73
2022/10/27 21:38:34;;;;;;;70.00;33.75;;;;;;;;;;10028746;28;20041;-72
2022/10/27 21:43:27;;;;;;;52.05;30.27;;;;;;;;;;10031903;28;20145;-73
2022/10/27 21:48:20;;;;;;;49.13;33.50;;;;;;;;;;10035432;28;20046;-73
2022/10/27 21:53:14;;;;;;;54.20;32.35;;;;;;;;;;10051095;28;20050;-70
2022/10/27 21:58:08;;;;;;;56.28;33.97;;;;;;;;;;10065315;28;20459;-70
2022/10/27 22:03:02;;;;;;;55.08;29.67;;;;;;;;;;10055745;28;20052;-69
2022/10/27 22:07:56;;;;;;;48.70;30.75;;;;;;;;;;10050141;28;20050;-69
2022/10/27 22:12:50;;;;;;;57.25;33.90;;;;;;;;;;10057618;28;20076;-69
2022/10/27 22:17:45;;;;;;;60.47;32.78;;;;;;;;;;10062860;28;20081;-70
2022/10/27 22:22:39;;;;;;;48.22;33.08;;;;;;;;;;10058760;28;20056;-71
2022/10/27 22:27:37;;;;;;;51.30;33.90;;;;;;;;;;10059500;28;20050;-70
2022/10/27 22:32:31;;;;;;;49.78;33.45;;;;;;;;;;10057354;28;20145;-70
2022/10/27 22:37:25;;;;;;;52.88;30.77;;;;;;;;;;10057585;28;20069;-70
2022/10/27 22:42:19;;;;;;;50.28;30.38;;;;;;;;;;10056325;28;20042;-70
2022/10/27 22:47:13;;;;;;;44.25;30.00;;;;;;;;;;10058557;28;20053;-70
2022/10/27 22:52:06;;;;;;;49.10;32.42;;;;;;;;;;10055813;28;20081;-71
2022/10/27 22:56:59;;;;;;;47.10;30.55;;;;;;;;;;10059266;28;20057;-70
2022/10/27 23:01:52;;;;;;;46.33;30.40;;;;;;;;;;10055516;28;20424;-71
2022/10/27 23:06:46;;;;;;;45.83;31.42;;;;;;;;;;10042404;28;20054;-69
2022/10/27 23:11:41;;;;;;;48.58;31.42;;;;;;;;;;10059161;28;20054;-69
2022/10/27 23:16:34;;;;;;;52.22;31.20;;;;;;;;;;10039054;28;20084;-73
2022/10/27 23:21:28;;;;;;;52.00;31.88;;;;;;;;;;10060667;28;20397;-74
2022/10/27 23:26:43;;;;;;;51.92;30.20;;;;;;;;;;10043251;28;20057;-74
2022/10/27 23:31:36;;;;;;;44.78;30.45;;;;;;;;;;10034789;28;20495;-74
2022/10/27 23:36:31;;;;;;;45.22;27.70;;;;;;;;;;10030027;28;20505;-74
2022/10/27 23:41:25;;;;;;;45.05;29.58;;;;;;;;;;10053729;28;20053;-74
2022/10/27 23:46:19;;;;;;;44.15;27.00;;;;;;;;;;10043797;28;20057;-75
2022/10/27 23:51:12;;;;;;;42.97;28.90;;;;;;;;;;10055303;28;20064;-74
2022/10/27 23:56:08;;;;;;;45.00;27.17;;;;;;;;;;10061066;28;20054;-75
